Terminal Aerodrome Forecast
Issued by NWS

Home | Current Version | Previous Version | Text Only | Print | Product List | Glossary On
Versions: 1 2 3 4 5 6 7 8 9 10 11 12 13 14 15 16 17 18 19 20 21 22 23 24 25 26 27 28 29 30 31 32 33 34
056
FTUS41 KBTV 181742
TAFPBG
TAF
KPBG 181742Z 1818/1918 16007KT 3SM -SHSN BR OVC025
      TEMPO 1818/1821 1SM -SHSN BR OVC015
     FM182100 VRB03KT 5SM -SHSN BR OVC015
     FM190600 VRB03KT 5SM BR VCSH OVC015
     FM190800 00000KT 5SM BR VCSH OVC020
     FM191400 17012KT P6SM BKN035
     FM191700 20014KT P6SM VCSH BKN080=

USA.gov is the U.S. government's official web portal to all federal, state and local government web resources and services.